KPRCKBLH

Guest
Details From KPRC - Prescott Ernest A. Love Field
To KBLH - BLYTHE
Flight Number -
Tags decoded
Created
Modified
Stats Distance 131 nm / 242 km
Max Altitude 0 ft / 0 m
Waypoints 5
Social Downloads 1
Likes 0
Share VATSIM

Download

Looking for another format? Having issues loading an existing format? Contact us
Advertisement - Login to hide

Notes

Requested: KPRC 28E NIDSE WUVER KBLH

Route

KPRC 28E NIDSE WUVER KBLH

ID Type Via Altitude (ft/m) Position (lat/lon) Dist (leg/tot) Name
O KPRC APT - 0 / 0 34.65446 / -112.41951 - / 0 nm Prescott Ernest A. Love Field
28E APT - 0 / 0 34.50891 / -112.67990 15 / 15 nm Quarter Circle J Ranch
NIDSE FIX - 0 / 0 33.87583 / -114.01417 76 / 91 nm
WUVER FIX - 0 / 0 33.65156 / -114.48164 26 / 118 nm
O KBLH APT - 0 / 0 33.61932 / -114.71688 11 / 130 nm BLYTHE

Altitude Profile

Advertisement - Login to hide

KPRC

Details ICAO KPRC (PRC)
Name Prescott Ernest A. Love Field
Region United States
Timezone America/Phoenix (UTC-7.0)
Stats Elevation 5,042 ft / 1,537 m (AMSL)
Location 34.654500° -112.420000°
Runways 3
Magnetic Variation 10.535° E

METAR

KPRC 182053Z 34006KT 10SM CLR 12/M03 A3017 RMK AO2 SLP189 T01221033 56021

Decode

TAF

TAF KPRC 181720Z 1818/1918 30007KT P6SM FEW250 FM190300 19005KT P6SM SKC

Decode

Departure Runways

ID Width Length Bearing (true/mag) Surface Threshold Overrun Markings Lighting
03L 60 ft / 18 m 4,847 ft / 1,478 m 41.15° / 30.62° ASPHALT 811 ft / 247 m 0 ft / 0 m APP EDGE THRESHOLD
03R 150 ft / 46 m 7,553 ft / 2,302 m 41.14° / 30.61° ASPHALT 723 ft / 220 m 0 ft / 0 m APP EDGE THRESHOLD REIL-OMNI
12 75 ft / 23 m 4,409 ft / 1,344 m 136.67° / 126.13° ASPHALT 150 ft / 46 m 0 ft / 0 m APP EDGE THRESHOLD REIL-OMNI
21L 150 ft / 46 m 7,553 ft / 2,302 m 221.15° / 210.62° ASPHALT 0 ft / 0 m 0 ft / 0 m PREC-APP EDGE THRESHOLD MALSR REIL-OMNI
21R 60 ft / 18 m 4,847 ft / 1,478 m 221.16° / 210.62° ASPHALT 0 ft / 0 m 0 ft / 0 m APP EDGE THRESHOLD
30 75 ft / 23 m 4,409 ft / 1,344 m 316.67° / 306.14° ASPHALT 0 ft / 0 m 0 ft / 0 m APP EDGE THRESHOLD REIL-OMNI

KBLH

Details ICAO KBLH (BLH)
Name BLYTHE
Region United States
Timezone America/Los_Angeles (UTC-8.0)
Stats Elevation 399 ft / 122 m (AMSL)
Location 33.619300° -114.717000°
Runways 2
Magnetic Variation 11.017° E

METAR

Not found

TAF

TAF KBLH 181720Z 1818/1918 33005KT P6SM BKN250

Decode

Destination Runways

ID Width Length Bearing (true/mag) Surface Threshold Overrun Markings Lighting
08 150 ft / 46 m 6,531 ft / 1,991 m 90.21° / 79.19° ASPHALT 0 ft / 0 m 769 ft / 234 m APP EDGE THRESHOLD
17 100 ft / 30 m 5,816 ft / 1,773 m 180.22° / 169.21° ASPHALT 0 ft / 0 m 212 ft / 65 m APP EDGE THRESHOLD
26 150 ft / 46 m 6,531 ft / 1,991 m 270.22° / 259.20° ASPHALT 0 ft / 0 m 424 ft / 129 m APP EDGE THRESHOLD
35 100 ft / 30 m 5,816 ft / 1,773 m 0.22° / 349.21° ASPHALT 0 ft / 0 m 200 ft / 61 m APP EDGE THRESHOLD

Popular Alternatives